Stations météo

réclame
Mon MeteoGroup
Beitem, Belgique (6414): Température de l'air & dewpoint: 26.05.2020 01:00:00 - 01.06.2020 01:00:00 (CEST)Beitem, Belgique (6414): Vitesse du vent & gusts: 26.05.2020 01:00:00 - 01.06.2020 01:00:00 (CEST)Beitem, Belgique (6414): Direction du vent: 26.05.2020 01:00:00 - 01.06.2020 01:00:00 (CEST)Beitem, Belgique (6414): reduced air pressure: 26.05.2020 01:00:00 - 01.06.2020 01:00:00 (CEST)Beitem, Belgique (6414): Ensoleillement: 26.05.2020 01:00:00 - 01.06.2020 01:00:00 (CEST)Beitem, Belgique (6414): Quantités de précipitations: 26.05.2020 01:00:00 - 01.06.2020 01:00:00 (CEST)
Date & Time tt [°C] td [°C] ff [km/h] ff [knt] fx [km/h] fx [knt] dd ppp [hPa] sd [min] rr [mm]
01.06.2020 01:00:00 - - - - - - - - - -
01.06.2020 00:00:00 17,2 6,3 13 7 18 10 NE 1021,9 0 0,0
31.05.2020 23:00:00 17,5 5,9 7 4 16 9 NE 1021,4 0 0,0
31.05.2020 22:00:00 19,8 4,9 14 8 23 13 E 1021,2 43 0,0
31.05.2020 21:00:00 21,0 4,3 16 9 29 16 ENE 1020,8 60 0,0
31.05.2020 20:00:00 21,7 4,0 18 10 29 16 ENE 1020,5 60 0,0
31.05.2020 19:00:00 22,2 2,7 17 9 35 19 ESE 1020,6 60 0,0
31.05.2020 18:00:00 22,8 3,2 20 11 32 18 ENE 1020,7 60 0,0
31.05.2020 17:00:00 22,5 3,8 19 10 36 20 ENE 1020,9 59 0,0
31.05.2020 16:00:00 22,5 4,4 21 12 35 19 NE 1021,2 60 0,0
31.05.2020 15:00:00 22,0 5,2 16 9 35 19 E 1021,3 56 0,0
31.05.2020 14:00:00 21,5 5,3 18 10 34 18 E 1021,7 59 0,0
31.05.2020 13:00:00 21,4 5,5 20 11 35 19 NE 1022,2 58 0,0
31.05.2020 12:00:00 20,9 5,8 17 9 34 18 ENE 1022,5 60 0,0
31.05.2020 11:00:00 20,3 5,4 20 11 30 16 ENE 1022,8 60 0,0
31.05.2020 10:00:00 19,3 6,1 14 7 21 11 E 1022,7 60 0,0
31.05.2020 09:00:00 17,2 6,4 13 7 19 10 E 1022,9 60 0,0
31.05.2020 08:00:00 15,6 6,5 7 4 14 7 ENE 1022,7 60 0,0
31.05.2020 07:00:00 13,8 5,8 8 5 16 9 E 1022,8 50 0,0
31.05.2020 06:00:00 12,3 5,3 7 4 10 6 ENE 1022,5 0 0,0
31.05.2020 05:00:00 13,1 5,5 7 4 11 6 ENE 1022,1 0 0,0
31.05.2020 04:00:00 13,6 5,5 7 4 10 5 ENE 1022,1 0 0,0
31.05.2020 03:00:00 14,7 6,0 8 4 15 8 ENE 1022,0 0 0,0
31.05.2020 02:00:00 15,5 7,2 11 6 16 9 ENE 1021,9 0 0,0
31.05.2020 01:00:00 16,0 8,3 10 6 14 8 NE 1021,8 0 0,0
31.05.2020 00:00:00 16,7 8,9 7 4 13 7 NE 1021,5 0 0,0
30.05.2020 23:00:00 18,3 8,8 9 5 18 10 NNE 1021,2 0 0,0
30.05.2020 22:00:00 20,1 8,2 12 6 23 13 NNE 1020,7 32 0,0
30.05.2020 21:00:00 22,7 5,0 15 8 26 14 E 1020,2 60 0,0
30.05.2020 20:00:00 23,5 4,2 18 10 31 17 E 1020,4 60 0,0
30.05.2020 19:00:00 24,0 3,7 16 9 31 17 E 1020,5 60 0,0
30.05.2020 18:00:00 24,2 4,2 15 8 29 16 E 1020,8 60 0,0
30.05.2020 17:00:00 24,2 3,5 14 7 32 18 SE 1021,1 60 0,0
30.05.2020 16:00:00 24,1 3,6 15 8 31 17 ENE 1021,7 60 0,0
30.05.2020 15:00:00 23,2 3,4 13 7 31 17 E 1021,9 60 0,0
30.05.2020 14:00:00 22,7 4,0 11 6 30 16 ENE 1022,5 60 0,0
30.05.2020 13:00:00 22,4 4,7 14 8 31 17 E 1022,8 60 0,0
30.05.2020 12:00:00 21,2 6,5 17 9 28 15 E 1023,3 60 0,0
30.05.2020 11:00:00 19,8 6,7 14 7 22 12 ENE 1023,4 60 0,0
30.05.2020 10:00:00 17,5 7,4 12 6 19 10 ENE 1023,5 60 0,0
30.05.2020 09:00:00 15,6 7,8 10 6 18 10 E 1023,5 60 0,0
30.05.2020 08:00:00 14,3 7,9 14 8 20 11 ENE 1023,6 60 0,0
30.05.2020 07:00:00 12,6 8,8 10 5 14 7 ENE 1023,5 49 0,0
30.05.2020 06:00:00 11,4 9,2 9 5 11 6 NE 1023,8 0 0,0
30.05.2020 05:00:00 12,2 10,1 8 4 13 7 ENE 1023,8 0 0,0
30.05.2020 04:00:00 12,7 10,6 9 5 13 7 ENE 1024,0 0 0,0
30.05.2020 03:00:00 13,5 10,8 10 5 18 10 ENE 1024,2 0 0,0
30.05.2020 02:00:00 14,2 10,6 11 6 17 9 NE 1024,4 0 0,0
30.05.2020 01:00:00 14,9 10,2 12 6 20 11 NE 1024,1 0 0,0
30.05.2020 00:00:00 14,8 9,8 9 5 16 8 NE 1024,1 0 0,0
29.05.2020 23:00:00 15,4 9,4 13 7 26 14 NNE 1024,2 0 0,0
29.05.2020 22:00:00 16,7 8,1 16 9 29 15 NNE 1024,0 30 0,0
29.05.2020 21:00:00 18,4 7,1 22 12 32 17 NNE 1024,0 60 0,0
29.05.2020 20:00:00 19,7 7,6 22 12 33 18 NNE 1024,3 60 0,0
29.05.2020 19:00:00 20,7 7,4 23 12 35 19 NNE 1024,5 60 0,0
29.05.2020 18:00:00 21,7 6,4 22 12 31 17 NNE 1024,9 60 0,0
29.05.2020 17:00:00 22,6 2,7 15 8 25 13 ENE 1025,2 60 0,0
29.05.2020 16:00:00 22,7 1,8 14 8 29 16 ENE 1025,8 60 0,0
29.05.2020 15:00:00 21,8 2,2 16 8 26 14 ENE 1026,6 60 0,0
29.05.2020 14:00:00 21,4 2,9 14 8 27 14 NE 1027,3 60 0,0
29.05.2020 13:00:00 20,3 4,9 14 8 26 14 E 1028,0 60 0,0
29.05.2020 12:00:00 19,5 5,3 15 8 29 16 ENE 1028,6 60 0,0
29.05.2020 11:00:00 17,7 7,0 13 7 22 12 ENE 1028,8 60 0,0
29.05.2020 10:00:00 16,2 7,2 11 6 19 10 ENE 1029,2 60 0,0
29.05.2020 09:00:00 13,8 6,6 13 7 24 13 E 1029,4 60 0,0
29.05.2020 08:00:00 12,2 6,1 14 8 23 12 ENE 1029,6 60 0,0
29.05.2020 07:00:00 10,6 5,9 13 7 17 9 NE 1029,9 48 0,0
29.05.2020 06:00:00 9,8 5,5 10 5 14 8 NE 1029,8 0 0,0
29.05.2020 05:00:00 10,7 5,6 11 6 16 9 ENE 1029,8 0 0,0
29.05.2020 04:00:00 11,4 6,0 11 6 16 9 ENE 1029,9 0 0,0
29.05.2020 03:00:00 12,3 6,4 11 6 21 11 ENE 1030,3 0 0,0
29.05.2020 02:00:00 13,5 7,1 14 8 26 14 ENE 1030,6 0 0,0
29.05.2020 01:00:00 13,9 8,3 15 8 30 16 NE 1030,5 0 0,0
29.05.2020 00:00:00 14,6 9,0 14 8 21 12 NE 1030,5 0 0,0
28.05.2020 23:00:00 15,2 9,3 11 6 24 13 NNE 1030,4 0 0,0
28.05.2020 22:00:00 16,1 9,5 16 8 34 18 NNE 1030,2 28 0,0
28.05.2020 21:00:00 18,3 9,0 17 9 34 19 NNE 1030,3 60 0,0
28.05.2020 20:00:00 20,2 6,3 18 10 36 20 NE 1030,2 60 0,0
28.05.2020 19:00:00 20,9 5,6 22 12 34 19 NNE 1030,4 60 0,0
28.05.2020 18:00:00 21,2 5,3 22 12 35 19 NE 1030,7 60 0,0
28.05.2020 17:00:00 21,6 5,3 22 12 35 19 NE 1031,2 60 0,0
28.05.2020 16:00:00 21,4 5,8 18 10 35 19 ENE 1031,7 60 0,0
28.05.2020 15:00:00 20,5 4,4 21 11 37 20 ENE 1032,5 60 0,0
28.05.2020 14:00:00 19,8 4,2 22 12 34 19 ENE 1033,3 60 0,0
28.05.2020 13:00:00 19,0 4,4 18 10 37 20 ENE 1033,6 60 0,0
28.05.2020 12:00:00 17,7 4,3 20 11 32 17 E 1034,0 60 0,0
28.05.2020 11:00:00 16,9 4,9 18 10 31 17 ENE 1034,9 60 0,0
28.05.2020 10:00:00 15,1 5,3 18 10 34 18 E 1034,8 60 0,0
28.05.2020 09:00:00 13,4 5,9 22 12 31 17 ENE 1035,1 60 0,0
28.05.2020 08:00:00 12,0 6,1 14 8 27 14 ENE 1035,0 60 0,0
28.05.2020 07:00:00 10,8 6,1 16 8 21 12 NE 1034,9 49 0,0
28.05.2020 06:00:00 10,8 6,7 16 8 27 15 NE 1034,8 0 0,0
28.05.2020 05:00:00 11,5 8,3 18 10 26 14 NE 1034,6 0 0,0
28.05.2020 04:00:00 11,6 10,7 10 6 19 11 NNE 1034,6 0 0,0
28.05.2020 03:00:00 11,5 10,6 9 5 19 11 NNE 1034,8 0 0,0
28.05.2020 02:00:00 11,4 10,2 11 6 20 11 N 1035,0 0 0,0
28.05.2020 01:00:00 11,6 9,9 9 5 24 13 NNE 1035,3 0 0,0
28.05.2020 00:00:00 12,4 10,0 16 8 23 12 N 1035,3 0 0,0
27.05.2020 23:00:00 13,7 9,0 11 6 22 12 N 1034,9 0 0,0
27.05.2020 22:00:00 15,3 8,0 10 5 28 15 N 1034,6 18 0,0
27.05.2020 21:00:00 16,9 7,4 19 10 35 19 NNE 1034,7 60 0,0
27.05.2020 20:00:00 18,5 8,1 18 10 36 19 NNE 1034,5 60 0,0
27.05.2020 19:00:00 19,6 8,2 19 11 36 20 NNE 1034,3 60 0,0
27.05.2020 18:00:00 20,4 8,3 21 12 38 20 NNE 1034,5 60 0,0
27.05.2020 17:00:00 21,3 8,8 21 12 40 22 NNE 1034,6 60 0,0
27.05.2020 16:00:00 21,4 9,0 24 13 40 22 N 1034,7 60 0,1
27.05.2020 15:00:00 21,4 8,5 24 13 38 20 N 1034,8 60 0,0
27.05.2020 14:00:00 21,3 9,1 22 12 30 16 N 1034,9 60 0,0
27.05.2020 13:00:00 21,1 9,5 16 8 30 16 N 1035,0 60 0,0
27.05.2020 12:00:00 20,5 9,5 14 7 25 13 N 1035,3 60 0,0
27.05.2020 11:00:00 19,2 9,2 14 8 24 13 NNE 1035,3 60 0,0
27.05.2020 10:00:00 17,6 7,7 11 6 17 9 N 1035,2 60 0,0
27.05.2020 09:00:00 16,1 8,7 10 5 14 8 N 1035,7 60 0,0
27.05.2020 08:00:00 14,4 9,7 7 4 13 7 NNE 1036,0 60 0,0
27.05.2020 07:00:00 12,6 10,4 7 4 11 6 N 1035,5 46 0,0
27.05.2020 06:00:00 11,3 9,3 8 4 13 7 NNW 1035,3 0 0,0
27.05.2020 05:00:00 13,4 9,4 6 4 12 6 N 1035,1 0 0,0
27.05.2020 04:00:00 11,4 8,5 6 4 8 5 NW 1035,3 0 0,0
27.05.2020 03:00:00 12,1 8,1 4 2 6 4 NNE 1035,3 0 0,0
27.05.2020 02:00:00 13,1 8,3 4 2 10 6 NE 1035,6 0 0,0
27.05.2020 01:00:00 14,4 7,7 7 4 18 10 NNE 1035,6 0 0,0
27.05.2020 00:00:00 15,7 7,7 10 5 19 10 NNE 1035,6 0 0,0
26.05.2020 23:00:00 16,5 8,8 8 4 16 9 N 1035,3 0 0,0
26.05.2020 22:00:00 18,5 7,9 10 6 17 9 NNE 1035,3 9 0,0
26.05.2020 21:00:00 20,7 7,3 12 6 26 14 NNE 1034,9 60 0,0
26.05.2020 20:00:00 22,1 8,2 14 8 29 16 N 1034,7 60 0,0
26.05.2020 19:00:00 22,8 7,8 18 10 30 16 NNW 1034,8 60 0,0
26.05.2020 18:00:00 23,7 7,8 18 10 29 16 NNW 1034,8 60 0,0
26.05.2020 17:00:00 23,7 8,0 15 8 30 16 N 1034,9 60 0,0
26.05.2020 16:00:00 23,9 8,5 20 11 32 17 NNW 1035,0 51 0,0
26.05.2020 15:00:00 24,0 8,6 14 8 30 16 N 1035,3 46 0,0
26.05.2020 14:00:00 23,4 9,7 7 4 21 12 NW 1035,5 54 0,0
26.05.2020 13:00:00 23,0 10,8 8 4 16 9 WNW 1035,6 60 0,0
26.05.2020 12:00:00 21,9 10,0 4 2 12 7 E 1036,0 60 0,0
26.05.2020 11:00:00 20,4 9,3 4 2 9 5 S 1036,2 60 0,0
26.05.2020 10:00:00 18,2 10,8 5 3 11 6 SW 1036,3 60 0,0
26.05.2020 09:00:00 16,4 11,1 4 2 7 4 SE 1036,2 60 0,0
26.05.2020 08:00:00 12,1 10,5 0 0 3 2 N 1036,1 60 0,0
26.05.2020 07:00:00 9,1 8,6 4 2 5 3 E 1036,1 29 0,0
26.05.2020 06:00:00 8,0 7,9 0 0 5 3 N 1035,7 0 0,0
26.05.2020 05:00:00 7,8 7,6 4 2 5 3 W 1035,7 0 0,0
26.05.2020 04:00:00 8,9 8,6 4 2 4 2 W 1035,9 0 0,0
26.05.2020 03:00:00 9,1 8,3 4 2 4 2 NNW 1035,7 0 0,0
26.05.2020 02:00:00 10,6 8,6 4 2 6 4 NW 1035,7 0 0,0
26.05.2020 01:00:00 12,7 9,9 5 3 7 4 E 1035,3 0 0,0

tt = Température de l'air
td = dewpoint
ff = Vitesse du vent
fx = gusts
dd = Direction du vent
ppp = reduced air pressure
sd = Ensoleillement
rr = Quantités de précipitations

stations d'obs. à proximité